createdAt,value
2023-05-11T00:00:39.517Z,17.77
2023-05-11T00:03:06.675Z,20.38
2023-05-11T00:05:33.405Z,18.42
2023-05-11T00:08:00.023Z,19.35
2023-05-11T00:10:28.586Z,22.00
2023-05-11T00:12:55.767Z,19.15
2023-05-11T00:15:22.356Z,22.58
2023-05-11T00:17:48.953Z,21.52
2023-05-11T00:20:15.800Z,20.65
2023-05-11T00:22:44.668Z,20.20
2023-05-11T00:25:11.375Z,20.17
2023-05-11T00:27:37.934Z,20.83
2023-05-11T00:30:04.870Z,19.63
2023-05-11T00:32:31.501Z,22.73
2023-05-11T00:34:58.123Z,21.07
2023-05-11T00:37:26.129Z,18.80
2023-05-11T00:39:52.952Z,19.83
2023-05-11T00:42:19.483Z,20.92
2023-05-11T00:44:46.041Z,20.25
2023-05-11T00:47:13.246Z,22.77
2023-05-11T00:49:39.848Z,19.63
2023-05-11T00:52:06.519Z,20.13
2023-05-11T00:54:33.231Z,19.55
2023-05-11T00:56:59.843Z,18.17
2023-05-11T00:59:27.170Z,16.77
2023-05-11T01:01:53.857Z,18.45
2023-05-11T01:04:20.663Z,18.15
2023-05-11T01:07:26.388Z,18.05
2023-05-11T01:10:01.790Z,17.27
2023-05-11T01:12:36.278Z,18.00
2023-05-11T01:15:11.750Z,17.83
2023-05-11T01:18:06.232Z,19.08
2023-05-11T01:20:32.974Z,19.25
2023-05-11T01:23:18.225Z,20.08
2023-05-11T01:25:57.161Z,18.03
2023-05-11T01:28:39.311Z,19.55
2023-05-11T01:31:10.820Z,17.77
2023-05-11T01:33:43.139Z,18.85
2023-05-11T01:36:11.793Z,16.73
2023-05-11T01:38:41.874Z,16.40
2023-05-11T01:41:13.083Z,17.88
2023-05-11T01:43:41.062Z,18.35
2023-05-11T01:46:10.218Z,18.60
2023-05-11T01:48:42.397Z,18.95
2023-05-11T01:51:09.578Z,18.23
2023-05-11T01:53:38.285Z,20.08
2023-05-11T01:56:06.862Z,19.70
2023-05-11T01:58:35.789Z,18.65
2023-05-11T02:01:04.029Z,19.83
2023-05-11T02:03:36.633Z,19.30
2023-05-11T02:06:05.761Z,18.50
2023-05-11T02:08:34.236Z,16.77
2023-05-11T02:11:03.302Z,19.98
2023-05-11T02:13:30.288Z,18.70
2023-05-11T02:15:58.575Z,19.20
2023-05-11T02:18:25.216Z,18.88
2023-05-11T02:20:59.710Z,17.77
2023-05-11T02:23:27.780Z,21.98
2023-05-11T02:25:55.353Z,17.83
2023-05-11T02:28:22.499Z,16.13
2023-05-11T02:30:52.726Z,16.63
2023-05-11T02:33:22.560Z,17.65
2023-05-11T02:35:54.198Z,20.23
2023-05-11T02:38:25.753Z,17.23
2023-05-11T02:40:57.579Z,20.07
2023-05-11T02:43:25.552Z,16.27
2023-05-11T02:46:02.815Z,20.80
2023-05-11T02:48:34.466Z,20.70
2023-05-11T02:51:03.719Z,21.17
2023-05-11T02:53:37.658Z,18.03
2023-05-11T02:56:05.049Z,22.15
2023-05-11T02:58:33.641Z,20.17
2023-05-11T03:01:13.329Z,21.90
2023-05-11T03:03:40.959Z,21.58
2023-05-11T03:06:08.324Z,32.57
2023-05-11T03:08:35.410Z,30.30
2023-05-11T03:11:03.933Z,27.38
2023-05-11T03:13:31.395Z,27.17
2023-05-11T03:16:02.437Z,25.58
2023-05-11T03:18:33.069Z,19.87
2023-05-11T03:21:00.793Z,22.08
2023-05-11T03:23:29.493Z,20.27
2023-05-11T03:25:57.534Z,21.92
2023-05-11T03:28:26.002Z,20.65
2023-05-11T03:31:02.290Z,18.73
2023-05-11T03:33:31.165Z,21.48
2023-05-11T03:35:59.882Z,19.10
2023-05-11T03:38:29.161Z,21.77
2023-05-11T03:40:58.397Z,21.65
2023-05-11T03:43:28.783Z,19.20
2023-05-11T03:45:57.397Z,19.00
2023-05-11T03:48:25.771Z,17.58
2023-05-11T03:50:52.401Z,19.35
2023-05-11T03:53:19.640Z,17.08
2023-05-11T03:55:46.348Z,18.87
2023-05-11T03:58:12.906Z,18.63
2023-05-11T04:00:42.644Z,16.75
2023-05-11T04:03:09.640Z,15.70
2023-05-11T04:05:37.978Z,20.40
2023-05-11T04:08:07.550Z,15.17
2023-05-11T04:10:34.092Z,12.57
2023-05-11T04:13:00.604Z,12.90
2023-05-11T04:15:27.280Z,12.27
2023-05-11T04:17:53.835Z,11.02
2023-05-11T04:20:20.696Z,11.80
2023-05-11T04:22:47.513Z,10.75
2023-05-11T04:25:14.667Z,12.30
2023-05-11T04:27:41.286Z,11.80
2023-05-11T04:30:08.870Z,9.55
2023-05-11T04:32:35.531Z,11.87
2023-05-11T04:35:02.668Z,8.77
2023-05-11T04:37:33.486Z,10.13
2023-05-11T04:40:01.774Z,9.82
2023-05-11T04:42:31.255Z,9.45
2023-05-11T04:44:58.948Z,10.07
2023-05-11T04:47:25.551Z,9.70
2023-05-11T04:49:52.345Z,7.65
2023-05-11T04:52:18.931Z,9.18
2023-05-11T04:54:48.383Z,6.40
2023-05-11T04:57:16.146Z,4.93
2023-05-11T04:59:42.898Z,5.28
2023-05-11T05:02:10.965Z,5.53
2023-05-11T05:04:37.523Z,5.57
2023-05-11T05:07:04.496Z,8.05
2023-05-11T05:09:31.149Z,8.77
2023-05-11T05:11:57.708Z,7.97
2023-05-11T05:14:24.240Z,6.05
2023-05-11T05:16:50.778Z,6.10
2023-05-11T05:19:17.410Z,5.53
2023-05-11T05:21:44.433Z,6.87
2023-05-11T05:24:12.185Z,6.32
2023-05-11T05:26:39.040Z,6.88
2023-05-11T05:29:06.846Z,8.02
2023-05-11T05:31:33.603Z,6.65
2023-05-11T05:34:00.966Z,7.97
2023-05-11T05:36:27.666Z,7.35
2023-05-11T05:38:54.349Z,9.30
2023-05-11T05:41:22.482Z,8.15
2023-05-11T05:43:49.312Z,8.18
2023-05-11T05:46:16.678Z,7.97
2023-05-11T05:48:43.374Z,8.02
2023-05-11T05:51:09.957Z,7.35
2023-05-11T05:53:37.868Z,7.32
2023-05-11T05:56:04.662Z,7.38
2023-05-11T05:58:31.249Z,9.13
2023-05-11T06:00:57.753Z,7.35
2023-05-11T06:03:25.743Z,9.18
2023-05-11T06:05:53.736Z,7.20
2023-05-11T06:08:20.700Z,8.15
2023-05-11T06:10:47.314Z,6.93
2023-05-11T06:13:15.021Z,6.30
2023-05-11T06:15:43.949Z,6.15
2023-05-11T06:18:22.348Z,7.07
2023-05-11T06:20:49.266Z,6.93
2023-05-11T06:23:17.490Z,8.83
2023-05-11T06:25:44.399Z,6.35
2023-05-11T06:28:12.272Z,6.03
2023-05-11T06:30:38.887Z,7.00
2023-05-11T06:33:07.666Z,5.35
2023-05-11T06:35:36.917Z,5.00
2023-05-11T06:38:05.599Z,4.07
2023-05-11T06:40:33.079Z,4.22
2023-05-11T06:42:59.733Z,4.57
2023-05-11T06:45:41.801Z,4.82
2023-05-11T06:48:08.912Z,5.67
2023-05-11T06:50:35.559Z,6.03
2023-05-11T06:53:02.053Z,8.38
2023-05-11T06:55:29.559Z,5.65
2023-05-11T06:57:56.061Z,4.70
2023-05-11T07:00:22.630Z,4.37
2023-05-11T07:02:49.226Z,4.72
2023-05-11T07:05:15.831Z,7.75
2023-05-11T07:07:42.392Z,6.35
2023-05-11T07:10:09.402Z,4.60
2023-05-11T07:12:36.048Z,4.50
2023-05-11T07:15:02.601Z,3.78
2023-05-11T07:17:29.249Z,3.63
2023-05-11T07:19:55.822Z,3.05
2023-05-11T07:22:22.368Z,3.95
2023-05-11T07:24:48.887Z,5.03
2023-05-11T07:27:15.454Z,2.47
2023-05-11T07:29:41.966Z,2.03
2023-05-11T07:32:08.465Z,3.25
2023-05-11T07:34:34.957Z,1.40
2023-05-11T07:37:01.763Z,1.60
2023-05-11T07:39:28.274Z,1.77
2023-05-11T07:41:54.773Z,2.22
2023-05-11T07:44:21.373Z,2.75
2023-05-11T07:46:48.195Z,3.00
2023-05-11T07:49:20.572Z,2.70
2023-05-11T07:51:52.682Z,1.27
2023-05-11T07:54:21.038Z,2.15
2023-05-11T07:56:48.347Z,2.30
2023-05-11T07:59:14.845Z,1.15
2023-05-11T08:01:41.533Z,2.47
2023-05-11T08:04:08.063Z,1.00
2023-05-11T08:06:34.659Z,1.67
2023-05-11T08:09:01.214Z,1.10
2023-05-11T08:11:28.403Z,1.85
2023-05-11T08:13:55.034Z,2.00
2023-05-11T08:16:21.806Z,4.07
2023-05-11T08:18:48.414Z,1.58
2023-05-11T08:21:14.933Z,1.60
2023-05-11T08:23:42.929Z,3.10
2023-05-11T08:26:11.139Z,1.90
2023-05-11T08:28:37.679Z,1.60
2023-05-11T08:31:04.376Z,2.30
2023-05-11T08:33:38.058Z,2.22
2023-05-11T08:36:06.517Z,0.88
2023-05-11T08:38:34.958Z,2.17
2023-05-11T08:41:02.270Z,2.83
2023-05-11T08:43:29.450Z,2.15
2023-05-11T08:46:00.669Z,2.17
2023-05-11T08:48:27.456Z,7.70
2023-05-11T08:50:53.992Z,2.30
2023-05-11T08:53:20.523Z,8.02
2023-05-11T08:55:47.798Z,3.50
2023-05-11T08:58:20.897Z,2.88
2023-05-11T09:00:49.009Z,3.65
2023-05-11T09:03:19.570Z,3.97
2023-05-11T09:05:47.545Z,3.67
2023-05-11T09:08:15.791Z,2.75
2023-05-11T09:10:43.579Z,3.67
2023-05-11T09:13:10.544Z,13.45
2023-05-11T09:15:38.127Z,5.10
2023-05-11T09:18:05.479Z,5.20
2023-05-11T09:20:33.292Z,2.72
2023-05-11T09:23:00.774Z,3.20
2023-05-11T09:25:33.007Z,3.55
2023-05-11T09:28:00.071Z,4.27
2023-05-11T09:30:27.654Z,4.68
2023-05-11T09:32:59.298Z,3.95
2023-05-11T09:35:31.328Z,4.63
2023-05-11T09:38:09.488Z,4.28
2023-05-11T09:40:44.695Z,4.93
2023-05-11T09:43:30.243Z,4.57
2023-05-11T09:45:58.709Z,4.75
2023-05-11T09:48:32.694Z,4.20
2023-05-11T09:51:04.574Z,3.50
2023-05-11T09:53:36.166Z,4.73
2023-05-11T09:56:02.744Z,5.43
2023-05-11T09:58:48.373Z,2.72
2023-05-11T10:01:16.308Z,3.03
2023-05-11T10:03:50.573Z,4.38
2023-05-11T10:06:19.871Z,3.17
2023-05-11T10:08:47.470Z,3.10
2023-05-11T10:11:14.462Z,3.03
2023-05-11T10:13:43.460Z,2.65
2023-05-11T10:16:11.940Z,4.03
2023-05-11T10:18:39.351Z,3.63
2023-05-11T10:21:07.037Z,7.20
2023-05-11T10:23:33.787Z,3.70
2023-05-11T10:26:00.925Z,4.28
2023-05-11T10:28:28.511Z,2.63
2023-05-11T10:30:57.423Z,2.33
2023-05-11T10:33:24.089Z,2.58
2023-05-11T10:35:53.940Z,3.75
2023-05-11T10:38:22.654Z,2.30
2023-05-11T10:40:52.357Z,2.88
2023-05-11T10:43:37.558Z,3.13
2023-05-11T10:46:34.524Z,2.42
2023-05-11T10:49:19.180Z,2.40
2023-05-11T10:52:09.294Z,1.60
2023-05-11T10:54:48.918Z,1.92
2023-05-11T10:57:24.671Z,1.83
2023-05-11T11:00:30.751Z,2.42
2023-05-11T11:02:59.003Z,1.70
2023-05-11T11:05:36.294Z,2.42
2023-05-11T11:08:07.386Z,2.28
2023-05-11T11:10:38.944Z,2.00
2023-05-11T11:13:10.497Z,2.28
2023-05-11T11:15:55.464Z,2.28
2023-05-11T11:18:25.792Z,1.92
2023-05-11T11:20:54.221Z,2.95
2023-05-11T11:23:39.501Z,2.40
2023-05-11T11:26:07.598Z,6.03
2023-05-11T11:29:01.931Z,4.15
2023-05-11T11:31:32.849Z,2.70
2023-05-11T11:34:25.052Z,1.80
2023-05-11T11:36:54.740Z,2.57
2023-05-11T11:39:30.350Z,2.67
2023-05-11T11:42:04.820Z,2.47
2023-05-11T11:44:33.774Z,2.95
2023-05-11T11:47:16.924Z,3.83
2023-05-11T11:49:45.684Z,4.23
2023-05-11T11:52:35.767Z,4.38
2023-05-11T11:55:04.930Z,6.10
2023-05-11T11:57:34.363Z,6.93
2023-05-11T12:00:10.879Z,8.27
2023-05-11T12:02:44.801Z,6.30
2023-05-11T12:05:19.663Z,4.60
2023-05-11T12:07:48.216Z,2.97
2023-05-11T12:10:17.328Z,4.63
2023-05-11T12:12:51.789Z,4.85
2023-05-11T12:15:27.435Z,6.83
2023-05-11T12:17:54.645Z,19.75
2023-05-11T12:20:21.567Z,9.25
2023-05-11T12:22:49.316Z,2.90
2023-05-11T12:25:20.255Z,3.80
2023-05-11T12:27:47.250Z,4.27
2023-05-11T12:30:27.061Z,3.97
2023-05-11T12:32:57.537Z,4.20
2023-05-11T12:35:29.027Z,4.65
2023-05-11T12:37:56.573Z,2.78
2023-05-11T12:40:23.402Z,4.17
2023-05-11T12:42:55.009Z,4.68
2023-05-11T12:45:23.483Z,4.03
2023-05-11T12:47:52.102Z,4.07
2023-05-11T12:50:19.433Z,3.20
2023-05-11T12:52:46.191Z,3.97
2023-05-11T12:55:12.737Z,3.60
2023-05-11T12:57:40.697Z,3.60
2023-05-11T13:00:08.438Z,3.35
2023-05-11T13:02:35.220Z,4.28
2023-05-11T13:05:11.981Z,4.03
2023-05-11T13:07:38.653Z,3.45
2023-05-11T13:10:05.568Z,4.40
2023-05-11T13:12:34.119Z,4.68
2023-05-11T13:15:06.867Z,4.43
2023-05-11T13:17:35.561Z,6.30
2023-05-11T13:20:17.286Z,6.85
2023-05-11T13:22:44.444Z,6.60
2023-05-11T13:25:11.016Z,15.52
2023-05-11T13:27:38.273Z,10.60
2023-05-11T13:30:05.645Z,8.43
2023-05-11T13:32:32.303Z,9.57
2023-05-11T13:35:02.305Z,11.73
2023-05-11T13:37:28.877Z,13.65
2023-05-11T13:39:55.369Z,13.25
2023-05-11T13:42:22.036Z,11.53
2023-05-11T13:44:48.535Z,11.70
2023-05-11T13:47:15.092Z,12.77
2023-05-11T13:49:42.205Z,10.80
2023-05-11T13:52:09.032Z,12.32
2023-05-11T13:54:35.572Z,12.63
2023-05-11T13:57:02.666Z,10.43
2023-05-11T13:59:29.192Z,11.02
2023-05-11T14:01:55.904Z,9.88
2023-05-11T14:04:22.856Z,11.00
2023-05-11T14:06:49.440Z,9.13
2023-05-11T14:09:15.970Z,11.45
2023-05-11T14:11:42.570Z,10.30
2023-05-11T14:14:09.429Z,12.05
2023-05-11T14:16:36.210Z,8.88
2023-05-11T14:19:02.802Z,10.27
2023-05-11T14:21:29.609Z,11.68
2023-05-11T14:24:10.749Z,12.50
2023-05-11T14:26:39.272Z,9.38
2023-05-11T14:29:05.825Z,10.60
2023-05-11T14:31:33.061Z,9.60
2023-05-11T14:33:59.992Z,14.02
2023-05-11T14:36:26.579Z,9.80
2023-05-11T14:38:53.098Z,11.60
2023-05-11T14:41:19.740Z,9.77
2023-05-11T14:43:46.311Z,8.47
2023-05-11T14:46:12.927Z,11.57
2023-05-11T14:48:39.521Z,10.55
2023-05-11T14:51:06.413Z,11.30
2023-05-11T14:53:33.025Z,10.45
2023-05-11T14:56:00.547Z,12.50
2023-05-11T14:58:27.702Z,12.70
2023-05-11T15:00:54.243Z,11.15
2023-05-11T15:03:20.821Z,13.25
2023-05-11T15:05:47.392Z,12.65
2023-05-11T15:08:28.513Z,12.10
2023-05-11T15:10:56.616Z,10.98
2023-05-11T15:13:23.879Z,12.77
2023-05-11T15:15:51.361Z,11.48
2023-05-11T15:18:18.093Z,12.85
2023-05-11T15:20:44.689Z,12.07
2023-05-11T15:23:11.824Z,12.40
2023-05-11T15:25:38.394Z,12.55
2023-05-11T15:28:06.163Z,10.23
2023-05-11T15:30:33.030Z,10.98
2023-05-11T15:32:59.685Z,12.87
2023-05-11T15:35:26.343Z,11.23
2023-05-11T15:37:52.846Z,12.02
2023-05-11T15:40:19.385Z,12.48
2023-05-11T15:42:45.970Z,12.10
2023-05-11T15:45:12.651Z,10.43
2023-05-11T15:47:39.212Z,13.48
2023-05-11T15:50:06.543Z,13.32
2023-05-11T15:52:33.062Z,10.77
2023-05-11T15:54:59.568Z,11.32
2023-05-11T15:57:26.111Z,9.83
2023-05-11T15:59:53.177Z,10.40
2023-05-11T16:02:19.760Z,10.52
2023-05-11T16:04:46.305Z,11.30
2023-05-11T16:07:13.056Z,10.82
2023-05-11T16:09:39.629Z,10.70
2023-05-11T16:12:06.736Z,10.65
2023-05-11T16:14:33.627Z,12.13
2023-05-11T16:17:01.749Z,10.75
2023-05-11T16:19:29.765Z,10.32
2023-05-11T16:21:56.459Z,9.83
2023-05-11T16:24:22.960Z,11.40
2023-05-11T16:26:50.238Z,9.75
2023-05-11T16:29:16.861Z,11.27
2023-05-11T16:31:43.478Z,10.85
2023-05-11T16:34:10.046Z,10.73
2023-05-11T16:36:36.695Z,10.15
2023-05-11T16:39:04.009Z,10.15
2023-05-11T16:41:31.531Z,9.68
2023-05-11T16:43:58.095Z,9.57
2023-05-11T16:46:24.721Z,10.23
2023-05-11T16:48:51.338Z,9.95
2023-05-11T16:51:17.827Z,9.43
2023-05-11T16:53:46.265Z,10.18
2023-05-11T16:56:13.456Z,12.25
2023-05-11T16:58:40.272Z,11.07
2023-05-11T17:01:06.953Z,11.02
2023-05-11T17:03:34.494Z,11.07
2023-05-11T17:06:01.224Z,11.27
2023-05-11T17:08:28.322Z,9.75
2023-05-11T17:10:55.707Z,9.90
2023-05-11T17:13:22.236Z,12.50
2023-05-11T17:15:48.810Z,9.43
2023-05-11T17:18:15.379Z,12.32
2023-05-11T17:20:42.070Z,11.48
2023-05-11T17:23:08.584Z,10.93
2023-05-11T17:25:35.142Z,12.65
2023-05-11T17:28:01.774Z,12.93
2023-05-11T17:30:55.997Z,10.70
2023-05-11T17:33:15.030Z,10.75
2023-05-11T17:35:41.717Z,11.10
2023-05-11T17:38:08.289Z,12.82
2023-05-11T17:40:34.796Z,9.90
2023-05-11T17:43:02.111Z,11.77
2023-05-11T17:45:29.132Z,12.73
2023-05-11T17:47:55.829Z,9.93
2023-05-11T17:50:23.357Z,10.52
2023-05-11T17:52:51.209Z,11.40
2023-05-11T17:55:18.313Z,12.85
2023-05-11T17:57:45.061Z,13.10
2023-05-11T18:00:12.553Z,13.40
2023-05-11T18:02:39.261Z,11.55
2023-05-11T18:05:06.939Z,11.02
2023-05-11T18:07:33.646Z,9.57
2023-05-11T18:10:00.305Z,11.43
2023-05-11T18:12:26.988Z,10.37
2023-05-11T18:14:53.483Z,11.20
2023-05-11T18:17:19.992Z,10.40
2023-05-11T18:19:46.532Z,9.25
2023-05-11T18:22:13.282Z,10.57
2023-05-11T18:24:39.815Z,10.17
2023-05-11T18:27:06.295Z,9.15
2023-05-11T18:29:32.874Z,8.00
2023-05-11T18:31:59.511Z,9.63
2023-05-11T18:34:26.348Z,10.25
2023-05-11T18:36:52.991Z,10.57
2023-05-11T18:39:19.536Z,11.20
2023-05-11T18:41:46.041Z,10.30
2023-05-11T18:44:15.018Z,11.23
2023-05-11T18:46:41.683Z,8.65
2023-05-11T18:49:08.307Z,7.00
2023-05-11T18:51:34.939Z,6.10
2023-05-11T18:54:01.935Z,7.55
2023-05-11T18:56:28.446Z,5.97
2023-05-11T18:58:54.998Z,8.88
2023-05-11T19:01:24.207Z,6.90
2023-05-11T19:03:55.019Z,5.78
2023-05-11T19:06:21.622Z,7.57
2023-05-11T19:08:51.163Z,7.45
2023-05-11T19:11:18.402Z,6.82
2023-05-11T19:13:44.951Z,7.33
2023-05-11T19:16:11.656Z,8.73
2023-05-11T19:18:39.903Z,6.65
2023-05-11T19:21:06.876Z,7.97
2023-05-11T19:23:33.700Z,9.02
2023-05-11T19:26:00.477Z,9.73
2023-05-11T19:28:27.165Z,8.18
2023-05-11T19:31:04.805Z,7.90
2023-05-11T19:33:32.129Z,8.57
2023-05-11T19:35:59.006Z,7.35
2023-05-11T19:38:25.563Z,8.83
2023-05-11T19:40:52.700Z,7.93
2023-05-11T19:43:19.418Z,7.78
2023-05-11T19:45:46.310Z,10.18
2023-05-11T19:48:13.581Z,8.95
2023-05-11T19:50:41.298Z,8.00
2023-05-11T19:53:08.032Z,8.25
2023-05-11T19:55:34.861Z,10.35
2023-05-11T19:58:02.017Z,8.13
2023-05-11T20:00:28.630Z,8.90
2023-05-11T20:02:56.095Z,7.90
2023-05-11T20:05:22.684Z,8.00
2023-05-11T20:07:49.841Z,6.90
2023-05-11T20:10:16.773Z,8.13
2023-05-11T20:12:43.537Z,9.70
2023-05-11T20:15:10.923Z,7.23
2023-05-11T20:17:39.362Z,9.13
2023-05-11T20:20:07.447Z,8.40
2023-05-11T20:22:34.393Z,9.63
2023-05-11T20:25:00.955Z,8.00
2023-05-11T20:27:27.513Z,8.67
2023-05-11T20:29:54.782Z,10.38
2023-05-11T20:32:21.273Z,9.75
2023-05-11T20:34:47.897Z,10.15
2023-05-11T20:37:14.629Z,8.48
2023-05-11T20:39:41.148Z,8.17
2023-05-11T20:42:07.735Z,9.23
2023-05-11T20:44:34.359Z,9.55
2023-05-11T20:47:00.996Z,11.02
2023-05-11T20:49:38.392Z,8.75
2023-05-11T20:52:06.165Z,11.03
2023-05-11T20:54:34.813Z,9.10
2023-05-11T20:57:05.047Z,9.18
2023-05-11T21:02:01.807Z,7.95
2023-05-11T21:04:29.786Z,12.07
2023-05-11T21:06:56.436Z,7.47
2023-05-11T21:09:22.990Z,10.07
2023-05-11T21:11:49.543Z,8.98
2023-05-11T21:14:16.356Z,10.00
2023-05-11T21:16:42.967Z,10.00
2023-05-11T21:19:09.638Z,8.65
2023-05-11T21:21:36.227Z,9.82
2023-05-11T21:24:03.890Z,10.02
2023-05-11T21:26:30.441Z,10.73
2023-05-11T21:28:57.483Z,9.80
2023-05-11T21:31:24.074Z,8.95
2023-05-11T21:33:51.825Z,9.18
2023-05-11T21:36:18.373Z,8.50
2023-05-11T21:38:44.982Z,9.10
2023-05-11T21:41:11.513Z,11.10
2023-05-11T21:43:37.987Z,10.35
2023-05-11T21:46:04.655Z,10.48
2023-05-11T21:48:31.229Z,11.23
2023-05-11T21:50:57.741Z,10.50
2023-05-11T21:53:24.388Z,7.87
2023-05-11T21:55:50.856Z,10.20
2023-05-11T21:58:17.596Z,8.32
2023-05-11T22:00:44.302Z,10.38
2023-05-11T22:03:10.904Z,10.75
2023-05-11T22:05:37.545Z,10.93
2023-05-11T22:08:13.948Z,11.82
2023-05-11T22:10:43.040Z,10.25
2023-05-11T22:13:09.722Z,11.68
2023-05-11T22:15:36.406Z,9.80
2023-05-11T22:18:03.550Z,10.80
2023-05-11T22:20:31.640Z,11.02
2023-05-11T22:22:59.014Z,13.68
2023-05-11T22:25:25.591Z,12.32
2023-05-11T22:27:52.083Z,11.50
2023-05-11T22:30:20.136Z,11.97
2023-05-11T22:32:47.332Z,12.18
2023-05-11T22:35:13.930Z,13.73
2023-05-11T22:37:40.483Z,13.23
2023-05-11T22:40:07.488Z,11.80
2023-05-11T22:42:34.812Z,10.33
2023-05-11T22:45:01.382Z,14.15
2023-05-11T22:47:28.065Z,13.38
2023-05-11T22:49:54.751Z,12.80
2023-05-11T22:52:21.966Z,13.63
2023-05-11T22:54:57.723Z,14.20
2023-05-11T22:57:26.274Z,12.95
2023-05-11T22:59:52.860Z,11.73
2023-05-11T23:02:19.471Z,13.60
2023-05-11T23:04:53.102Z,15.18
2023-05-11T23:07:19.968Z,16.13
2023-05-11T23:09:46.779Z,12.27
2023-05-11T23:12:13.422Z,13.95
2023-05-11T23:14:39.956Z,13.27
2023-05-11T23:17:06.554Z,11.30
2023-05-11T23:19:33.190Z,13.30
2023-05-11T23:21:59.898Z,10.88
2023-05-11T23:24:26.821Z,11.18
2023-05-11T23:26:53.341Z,12.27
2023-05-11T23:29:20.001Z,13.15
2023-05-11T23:31:46.596Z,13.33
2023-05-11T23:34:13.128Z,13.30
2023-05-11T23:36:39.689Z,16.05
2023-05-11T23:39:06.381Z,11.82
2023-05-11T23:41:33.015Z,13.05
2023-05-11T23:44:00.539Z,15.57
2023-05-11T23:46:27.121Z,13.18
2023-05-11T23:48:53.665Z,12.20
2023-05-11T23:51:20.461Z,11.20
2023-05-11T23:53:46.994Z,14.45
2023-05-11T23:56:13.536Z,10.77
2023-05-11T23:58:41.416Z,10.75
